createdAt,value
2022-09-06T00:01:24.371Z,0.95
2022-09-06T00:03:58.778Z,0.98
2022-09-06T00:06:28.313Z,1.00
2022-09-06T00:08:57.618Z,0.90
2022-09-06T00:11:26.987Z,1.00
2022-09-06T00:13:56.594Z,0.95
2022-09-06T00:16:30.497Z,1.00
2022-09-06T00:19:11.263Z,0.95
2022-09-06T00:21:41.146Z,1.00
2022-09-06T00:24:11.049Z,0.88
2022-09-06T00:27:25.255Z,1.00
2022-09-06T00:29:54.647Z,0.88
2022-09-06T00:32:26.745Z,0.88
2022-09-06T00:34:56.060Z,0.80
2022-09-06T00:37:25.473Z,0.70
2022-09-06T00:39:54.836Z,0.90
2022-09-06T00:42:24.066Z,0.90
2022-09-06T00:44:56.238Z,0.88
2022-09-06T00:47:28.112Z,0.90
2022-09-06T00:50:01.825Z,1.10
2022-09-06T00:52:33.426Z,0.70
2022-09-06T00:55:03.318Z,1.10
2022-09-06T00:57:33.736Z,0.60
2022-09-06T01:00:05.683Z,1.05
2022-09-06T01:02:34.974Z,0.90
2022-09-06T01:05:05.644Z,0.90
2022-09-06T01:08:26.028Z,0.82
2022-09-06T01:11:24.605Z,1.00
2022-09-06T01:13:59.542Z,0.75
2022-09-06T01:17:06.745Z,0.77
2022-09-06T01:19:51.354Z,0.90
2022-09-06T01:22:42.066Z,0.90
2022-09-06T01:25:39.359Z,0.85
2022-09-06T01:28:29.189Z,0.80
2022-09-06T01:31:21.459Z,0.80
2022-09-06T01:33:55.896Z,0.65
2022-09-06T01:36:34.254Z,1.15
2022-09-06T01:39:04.362Z,1.10
2022-09-06T01:41:34.813Z,0.75
2022-09-06T01:44:04.775Z,1.00
2022-09-06T01:46:45.662Z,0.90
2022-09-06T01:49:36.558Z,0.65
2022-09-06T01:52:34.701Z,1.08
2022-09-06T01:55:25.224Z,0.90
2022-09-06T01:58:08.381Z,1.17
2022-09-06T02:01:08.665Z,0.90
2022-09-06T02:04:05.671Z,0.90
2022-09-06T02:06:42.818Z,0.70
2022-09-06T02:09:18.636Z,0.88
2022-09-06T02:12:02.371Z,0.80
2022-09-06T02:14:41.643Z,1.33
2022-09-06T02:17:15.709Z,0.95
2022-09-06T02:19:55.948Z,0.80
2022-09-06T02:22:31.229Z,0.90
2022-09-06T02:25:02.388Z,1.40
2022-09-06T02:27:31.721Z,1.05
2022-09-06T02:30:03.777Z,0.90
2022-09-06T02:32:40.364Z,1.23
2022-09-06T02:35:14.405Z,1.10
2022-09-06T02:41:15.057Z,0.80
2022-09-06T02:59:31.045Z,0.77
2022-09-06T03:02:01.154Z,0.98
2022-09-06T03:04:33.795Z,0.95
2022-09-06T03:07:03.318Z,1.02
2022-09-06T03:09:35.258Z,1.00
2022-09-06T03:12:07.730Z,0.90
2022-09-06T03:14:37.068Z,1.17
2022-09-06T03:17:08.972Z,0.90
2022-09-06T03:19:42.628Z,1.13
2022-09-06T03:25:36.086Z,0.90
2022-09-06T03:32:24.998Z,1.40
2022-09-06T03:36:17.657Z,1.02
2022-09-06T03:42:04.998Z,1.15
2022-09-06T03:57:48.374Z,1.40
2022-09-06T04:00:50.746Z,1.17
2022-09-06T04:04:19.036Z,1.30
2022-09-06T04:10:08.270Z,1.00
2022-09-06T04:13:05.856Z,1.10
2022-09-06T04:15:38.142Z,1.08
2022-09-06T04:18:19.991Z,1.05
2022-09-06T04:20:51.731Z,0.90
2022-09-06T04:23:21.712Z,1.30
2022-09-06T04:25:53.120Z,1.40
2022-09-06T04:28:23.214Z,1.05
2022-09-06T04:31:03.526Z,1.10
2022-09-06T04:33:35.479Z,1.02
2022-09-06T04:36:07.593Z,0.85
2022-09-06T04:38:42.923Z,0.95
2022-09-06T04:41:14.385Z,1.20
2022-09-06T04:43:43.963Z,1.00
2022-09-06T04:46:31.443Z,1.00
2022-09-06T04:49:02.281Z,1.13
2022-09-06T04:51:32.498Z,1.05
2022-09-06T04:54:01.586Z,1.20
2022-09-06T04:56:31.119Z,0.90
2022-09-06T04:59:00.401Z,1.08
2022-09-06T05:07:46.596Z,1.05
2022-09-06T05:10:15.794Z,1.10
2022-09-06T05:12:44.777Z,1.25
2022-09-06T05:15:13.967Z,1.05
2022-09-06T05:20:44.093Z,1.10
2022-09-06T05:23:13.261Z,0.93
2022-09-06T05:31:47.101Z,1.00
2022-09-06T05:34:16.194Z,1.08
2022-09-06T05:36:46.309Z,0.75
2022-09-06T05:56:22.992Z,1.05
2022-09-06T05:59:59.768Z,1.10
2022-09-06T06:08:01.750Z,1.40
2022-09-06T06:24:41.435Z,1.20
2022-09-06T06:27:10.917Z,1.60
2022-09-06T06:29:40.015Z,1.63
2022-09-06T06:32:09.122Z,1.02
2022-09-06T06:34:38.256Z,1.05
2022-09-06T06:37:07.276Z,1.10
2022-09-06T06:39:36.574Z,1.08
2022-09-06T06:42:05.778Z,1.10
2022-09-06T06:44:53.969Z,1.13
2022-09-06T06:47:22.993Z,1.08
2022-09-06T06:49:51.944Z,1.10
2022-09-06T06:52:22.512Z,1.15
2022-09-06T06:54:51.566Z,1.10
2022-09-06T06:57:20.612Z,1.10
2022-09-06T06:59:49.740Z,1.30
2022-09-06T07:02:19.455Z,1.33
2022-09-06T07:04:48.559Z,1.05
2022-09-06T07:07:34.433Z,1.10
2022-09-06T07:12:55.148Z,1.13
2022-09-06T07:15:24.258Z,1.15
2022-09-06T07:28:05.849Z,1.30
2022-09-06T07:30:37.992Z,1.42
2022-09-06T07:33:07.936Z,1.23
2022-09-06T07:35:37.117Z,1.40
2022-09-06T07:38:06.158Z,1.70
2022-09-06T07:40:35.339Z,1.27
2022-09-06T07:43:04.333Z,1.35
2022-09-06T07:45:33.660Z,1.63
2022-09-06T07:48:02.783Z,1.40
2022-09-06T07:50:48.684Z,1.20
2022-09-06T07:53:30.291Z,1.17
2022-09-06T07:56:01.824Z,1.10
2022-09-06T07:58:32.108Z,1.50
2022-09-06T08:01:33.350Z,1.10
2022-09-06T08:04:06.802Z,1.00
2022-09-06T08:09:32.951Z,1.50
2022-09-06T08:12:07.653Z,1.40
2022-09-06T08:14:37.409Z,1.42
2022-09-06T08:17:09.599Z,1.10
2022-09-06T08:19:38.815Z,1.48
2022-09-06T08:29:30.543Z,1.48
2022-09-06T08:38:13.222Z,1.65
2022-09-06T08:46:40.989Z,1.10
2022-09-06T09:01:00.254Z,1.10
2022-09-06T09:04:13.510Z,1.20
2022-09-06T09:16:08.231Z,1.40
2022-09-06T09:19:23.433Z,1.30
2022-09-06T09:23:32.933Z,1.40
2022-09-06T09:27:22.971Z,1.33
2022-09-06T09:35:49.897Z,1.30
2022-09-06T09:39:49.771Z,1.23
2022-09-06T09:47:25.023Z,1.40
2022-09-06T09:50:47.555Z,1.42
2022-09-06T09:53:28.765Z,1.17
2022-09-06T09:56:26.297Z,1.67
2022-09-06T09:59:14.370Z,1.38
2022-09-06T10:02:59.390Z,1.30
2022-09-06T10:06:02.399Z,1.48
2022-09-06T10:13:34.587Z,1.13
2022-09-06T10:17:04.408Z,1.13
2022-09-06T10:20:34.236Z,1.60
2022-09-06T10:25:01.770Z,1.45
2022-09-06T10:28:40.744Z,1.13
2022-09-06T10:40:32.811Z,1.30
2022-09-06T10:43:27.171Z,1.10
2022-09-06T10:46:47.006Z,1.30
2022-09-06T10:50:22.693Z,1.65
2022-09-06T10:53:32.705Z,1.30
2022-09-06T11:09:07.528Z,1.30
2022-09-06T11:12:03.707Z,1.30
2022-09-06T11:15:22.044Z,1.35
2022-09-06T11:18:49.004Z,1.55
2022-09-06T11:22:29.357Z,1.73
2022-09-06T11:25:51.794Z,1.40
2022-09-06T11:29:12.802Z,1.50
2022-09-06T11:44:10.358Z,1.23
2022-09-06T11:47:16.944Z,1.45
2022-09-06T11:56:22.249Z,1.30
2022-09-06T12:07:23.072Z,1.45
2022-09-06T12:10:32.291Z,1.17
2022-09-06T12:13:51.330Z,1.40
2022-09-06T12:17:24.982Z,1.40
2022-09-06T12:20:46.850Z,1.38
2022-09-06T12:24:11.957Z,1.48
2022-09-06T12:27:46.917Z,1.40
2022-09-06T12:31:18.220Z,1.77
2022-09-06T12:37:49.790Z,1.40
2022-09-06T12:41:03.935Z,1.67
2022-09-06T12:44:45.122Z,2.15
2022-09-06T12:47:52.517Z,1.45
2022-09-06T12:50:47.407Z,1.98
2022-09-06T12:57:27.627Z,1.35
2022-09-06T13:00:12.826Z,1.23
2022-09-06T13:03:11.684Z,1.38
2022-09-06T13:14:16.988Z,1.73
2022-09-06T13:17:35.162Z,1.40
2022-09-06T13:21:34.022Z,1.67
2022-09-06T13:28:44.199Z,1.85
2022-09-06T13:32:19.687Z,1.58
2022-09-06T13:35:05.184Z,1.95
2022-09-06T13:47:07.371Z,1.48
2022-09-06T13:49:36.483Z,2.30
2022-09-06T13:52:06.220Z,1.63
2022-09-06T13:54:36.060Z,1.60
2022-09-06T13:57:05.432Z,1.50
2022-09-06T13:59:34.470Z,1.45
2022-09-06T14:02:07.818Z,1.60
2022-09-06T14:04:37.845Z,1.60
2022-09-06T14:07:07.262Z,1.52
2022-09-06T14:09:36.338Z,2.03
2022-09-06T14:12:07.637Z,2.20
2022-09-06T14:14:36.755Z,1.80
2022-09-06T14:17:06.038Z,1.70
2022-09-06T14:19:35.216Z,1.40
2022-09-06T14:22:05.791Z,1.50
2022-09-06T14:24:35.061Z,1.80
2022-09-06T14:27:05.190Z,1.52
2022-09-06T14:29:36.515Z,1.60
2022-09-06T14:32:05.842Z,1.70
2022-09-06T14:34:34.849Z,1.60
2022-09-06T14:37:03.947Z,1.80
2022-09-06T14:39:33.451Z,1.65
2022-09-06T14:42:02.586Z,1.52
2022-09-06T14:44:31.702Z,2.10
2022-09-06T14:47:01.050Z,5.57
2022-09-06T14:49:30.803Z,9.02
2022-09-06T14:51:59.835Z,6.95
2022-09-06T14:54:29.502Z,4.78
2022-09-06T14:56:58.565Z,2.90
2022-09-06T14:59:28.078Z,2.30
2022-09-06T15:01:58.222Z,1.90
2022-09-06T15:04:28.542Z,1.95
2022-09-06T15:06:57.690Z,1.70
2022-09-06T15:09:26.700Z,1.88
2022-09-06T15:11:56.644Z,2.47
2022-09-06T15:14:30.228Z,1.85
2022-09-06T15:17:05.314Z,1.70
2022-09-06T15:19:36.169Z,1.70
2022-09-06T15:22:06.719Z,1.73
2022-09-06T15:24:37.543Z,1.58
2022-09-06T15:27:06.773Z,1.50
2022-09-06T15:29:35.841Z,2.08
2022-09-06T15:32:04.997Z,1.98
2022-09-06T15:34:34.650Z,1.67
2022-09-06T15:37:04.497Z,1.80
2022-09-06T15:39:33.919Z,1.42
2022-09-06T15:42:03.177Z,1.67
2022-09-06T15:44:32.224Z,1.77
2022-09-06T15:47:01.640Z,2.03
2022-09-06T15:49:33.198Z,2.15
2022-09-06T15:52:04.129Z,2.08
2022-09-06T15:54:51.484Z,2.08
2022-09-06T15:57:20.894Z,1.90
2022-09-06T15:59:52.227Z,1.60
2022-09-06T16:02:21.373Z,2.15
2022-09-06T16:04:50.468Z,1.80
2022-09-06T16:07:19.673Z,1.75
2022-09-06T16:09:48.836Z,2.20
2022-09-06T16:12:18.068Z,1.90
2022-09-06T16:14:47.182Z,1.95
2022-09-06T16:17:16.216Z,1.92
2022-09-06T16:19:49.401Z,2.03
2022-09-06T16:22:18.513Z,1.63
2022-09-06T16:24:47.560Z,1.85
2022-09-06T16:27:17.034Z,1.80
2022-09-06T16:29:46.591Z,1.83
2022-09-06T16:32:15.752Z,1.70
2022-09-06T16:34:47.291Z,1.63
2022-09-06T16:37:16.612Z,2.05
2022-09-06T16:39:45.958Z,2.22
2022-09-06T16:42:15.681Z,1.95
2022-09-06T16:44:44.715Z,2.33
2022-09-06T16:47:16.633Z,1.88
2022-09-06T16:49:46.033Z,1.80
2022-09-06T16:52:15.424Z,1.83
2022-09-06T16:54:44.541Z,2.08
2022-09-06T16:57:13.578Z,1.90
2022-09-06T16:59:42.811Z,1.40
2022-09-06T17:02:11.984Z,1.80
2022-09-06T17:04:41.221Z,1.77
2022-09-06T17:07:10.959Z,2.20
2022-09-06T17:09:40.186Z,1.70
2022-09-06T17:12:09.422Z,1.77
2022-09-06T17:14:38.688Z,1.50
2022-09-06T17:17:08.051Z,1.50
2022-09-06T17:19:42.315Z,1.50
2022-09-06T17:22:13.500Z,1.48
2022-09-06T17:24:42.959Z,1.65
2022-09-06T17:27:12.171Z,1.35
2022-09-06T17:29:41.247Z,1.67
2022-09-06T17:32:11.107Z,1.80
2022-09-06T17:34:43.282Z,1.73
2022-09-06T17:37:13.001Z,1.75
2022-09-06T17:39:44.832Z,1.73
2022-09-06T17:42:14.510Z,1.83
2022-09-06T17:44:45.369Z,1.95
2022-09-06T17:47:14.656Z,1.70
2022-09-06T17:49:48.157Z,1.52
2022-09-06T17:52:17.341Z,1.70
2022-09-06T17:54:47.777Z,1.55
2022-09-06T17:57:17.088Z,1.67
2022-09-06T17:59:46.786Z,2.47
2022-09-06T18:02:15.811Z,1.50
2022-09-06T18:04:44.970Z,1.50
2022-09-06T18:07:14.000Z,1.52
2022-09-06T18:09:42.993Z,1.42
2022-09-06T18:12:12.167Z,1.50
2022-09-06T18:14:41.482Z,1.63
2022-09-06T18:17:10.521Z,1.40
2022-09-06T18:19:39.834Z,1.38
2022-09-06T18:22:09.095Z,1.33
2022-09-06T18:24:38.358Z,1.20
2022-09-06T18:27:07.532Z,1.83
2022-09-06T18:29:36.971Z,1.17
2022-09-06T18:32:08.316Z,1.30
2022-09-06T18:34:37.708Z,1.13
2022-09-06T18:37:06.836Z,1.42
2022-09-06T18:39:36.004Z,1.40
2022-09-06T18:42:14.765Z,1.38
2022-09-06T18:44:45.294Z,1.38
2022-09-06T18:47:14.472Z,1.20
2022-09-06T18:49:44.429Z,1.50
2022-09-06T18:52:13.843Z,1.13
2022-09-06T18:54:44.528Z,1.33
2022-09-06T18:57:18.172Z,1.45
2022-09-06T18:59:47.394Z,1.40
2022-09-06T19:02:16.496Z,1.25
2022-09-06T19:04:46.883Z,1.25
2022-09-06T19:07:16.153Z,1.30
2022-09-06T19:09:45.359Z,1.92
2022-09-06T19:12:14.611Z,1.27
2022-09-06T19:14:43.734Z,1.50
2022-09-06T19:17:12.967Z,1.55
2022-09-06T19:19:44.676Z,2.13
2022-09-06T19:22:14.555Z,1.35
2022-09-06T19:24:44.995Z,2.05
2022-09-06T19:27:14.733Z,1.60
2022-09-06T19:29:44.035Z,1.80
2022-09-06T19:32:13.173Z,1.73
2022-09-06T19:34:42.343Z,1.60
2022-09-06T19:37:11.363Z,1.73
2022-09-06T19:39:40.482Z,1.92
2022-09-06T19:42:10.001Z,1.67
2022-09-06T19:44:39.285Z,1.88
2022-09-06T19:47:08.815Z,2.40
2022-09-06T19:49:41.474Z,2.35
2022-09-06T19:52:11.525Z,2.08
2022-09-06T19:54:41.169Z,1.90
2022-09-06T19:57:13.897Z,2.50
2022-09-06T20:00:19.487Z,2.10
2022-09-06T20:03:02.073Z,2.25
2022-09-06T20:05:31.196Z,2.42
2022-09-06T20:08:00.231Z,2.20
2022-09-06T20:10:32.539Z,2.20
2022-09-06T20:13:01.801Z,2.05
2022-09-06T20:15:37.544Z,2.35
2022-09-06T20:18:10.507Z,2.70
2022-09-06T20:20:43.529Z,2.67
2022-09-06T20:23:13.363Z,2.40
2022-09-06T20:25:45.064Z,2.38
2022-09-06T20:28:14.435Z,2.30
2022-09-06T20:30:45.800Z,3.15
2022-09-06T20:33:15.616Z,2.30
2022-09-06T20:35:45.240Z,2.70
2022-09-06T20:38:19.406Z,2.55
2022-09-06T20:41:05.820Z,3.00
2022-09-06T20:53:15.654Z,2.65
2022-09-06T20:55:49.376Z,3.28
2022-09-06T20:58:24.009Z,3.40
2022-09-06T21:00:57.682Z,3.40
2022-09-06T21:03:29.917Z,3.38
2022-09-06T21:05:59.055Z,3.60
2022-09-06T21:08:31.674Z,3.95
2022-09-06T21:11:05.897Z,3.67
2022-09-06T21:13:35.903Z,3.10
2022-09-06T21:16:05.898Z,3.30
2022-09-06T21:18:38.821Z,2.88
2022-09-06T21:21:09.107Z,3.47
2022-09-06T21:23:42.355Z,2.85
2022-09-06T21:26:13.596Z,3.17
2022-09-06T21:28:43.241Z,2.75
2022-09-06T21:31:23.586Z,3.13
2022-09-06T21:33:55.412Z,2.80
2022-09-06T21:36:30.780Z,2.22
2022-09-06T21:39:05.841Z,2.33
2022-09-06T21:41:35.907Z,2.17
2022-09-06T21:44:07.042Z,2.70
2022-09-06T21:46:38.944Z,2.60
2022-09-06T21:49:11.916Z,2.67
2022-09-06T21:51:41.857Z,2.55
2022-09-06T21:54:11.275Z,2.67
2022-09-06T21:56:41.666Z,2.95
2022-09-06T21:59:11.858Z,2.72
2022-09-06T22:01:45.089Z,2.70
2022-09-06T22:04:15.204Z,3.22
2022-09-06T22:06:44.408Z,2.80
2022-09-06T22:09:14.301Z,3.05
2022-09-06T22:11:45.276Z,3.00
2022-09-06T22:14:16.216Z,2.60
2022-09-06T22:16:45.668Z,3.10
2022-09-06T22:19:14.789Z,3.15
2022-09-06T22:21:43.936Z,3.92
2022-09-06T22:24:13.855Z,3.08
2022-09-06T22:26:43.509Z,2.83
2022-09-06T22:29:15.960Z,2.95
2022-09-06T22:31:45.264Z,2.50
2022-09-06T22:34:14.445Z,2.78
2022-09-06T22:36:43.926Z,2.42
2022-09-06T22:39:13.613Z,3.20
2022-09-06T22:41:42.762Z,2.25
2022-09-06T22:44:11.879Z,2.15
2022-09-06T22:46:41.306Z,2.40
2022-09-06T22:49:10.549Z,2.30
2022-09-06T22:51:39.772Z,2.45
2022-09-06T22:54:08.845Z,2.10
2022-09-06T22:56:38.987Z,2.65
2022-09-06T22:59:08.787Z,2.40
2022-09-06T23:01:40.741Z,2.70
2022-09-06T23:04:11.076Z,2.40
2022-09-06T23:06:40.219Z,2.25
2022-09-06T23:09:09.300Z,2.30
2022-09-06T23:11:38.615Z,2.63
2022-09-06T23:14:07.647Z,2.30
2022-09-06T23:16:36.833Z,2.70
2022-09-06T23:19:06.309Z,2.95
2022-09-06T23:21:35.502Z,2.70
2022-09-06T23:24:04.893Z,2.95
2022-09-06T23:26:34.489Z,3.63
2022-09-06T23:29:03.853Z,2.70
2022-09-06T23:31:33.415Z,2.50
2022-09-06T23:34:03.510Z,3.05
2022-09-06T23:36:33.487Z,2.80
2022-09-06T23:39:03.294Z,2.45
2022-09-06T23:41:32.719Z,3.10
2022-09-06T23:44:02.636Z,2.53
2022-09-06T23:46:32.695Z,2.95
2022-09-06T23:49:01.903Z,3.05
2022-09-06T23:51:52.514Z,3.70
2022-09-06T23:54:24.557Z,2.65
2022-09-06T23:57:01.133Z,2.97
2022-09-06T23:59:36.987Z,3.22
